sensor_id;sensor_type;location;lat;lon;timestamp;P1;durP1;ratioP1;P2;durP2;ratioP2
37785;SDS011;23625;48.784;9.336;2023-10-09T00:00:33;31.45;;;6.88;;
37785;SDS011;23625;48.784;9.336;2023-10-09T00:03:05;28.70;;;6.57;;
37785;SDS011;23625;48.784;9.336;2023-10-09T00:05:32;30.67;;;5.82;;
37785;SDS011;23625;48.784;9.336;2023-10-09T00:08:11;20.83;;;5.97;;
37785;SDS011;23625;48.784;9.336;2023-10-09T00:10:47;45.65;;;7.68;;
37785;SDS011;23625;48.784;9.336;2023-10-09T00:13:17;26.02;;;5.75;;
37785;SDS011;23625;48.784;9.336;2023-10-09T00:16:03;27.80;;;5.50;;
37785;SDS011;23625;48.784;9.336;2023-10-09T00:18:40;22.58;;;6.10;;
37785;SDS011;23625;48.784;9.336;2023-10-09T00:21:18;23.42;;;7.38;;
37785;SDS011;23625;48.784;9.336;2023-10-09T00:23:48;32.00;;;6.53;;
37785;SDS011;23625;48.784;9.336;2023-10-09T00:26:24;27.88;;;5.50;;
37785;SDS011;23625;48.784;9.336;2023-10-09T00:28:50;30.48;;;5.80;;
37785;SDS011;23625;48.784;9.336;2023-10-09T00:31:19;19.70;;;5.32;;
37785;SDS011;23625;48.784;9.336;2023-10-09T00:34:03;29.27;;;6.63;;
37785;SDS011;23625;48.784;9.336;2023-10-09T00:36:30;29.58;;;5.75;;
37785;SDS011;23625;48.784;9.336;2023-10-09T00:38:57;26.33;;;6.50;;
37785;SDS011;23625;48.784;9.336;2023-10-09T00:41:26;19.38;;;5.85;;
37785;SDS011;23625;48.784;9.336;2023-10-09T00:43:54;30.45;;;6.05;;
37785;SDS011;23625;48.784;9.336;2023-10-09T00:46:24;26.35;;;6.43;;
37785;SDS011;23625;48.784;9.336;2023-10-09T00:48:51;19.00;;;5.45;;
37785;SDS011;23625;48.784;9.336;2023-10-09T00:51:20;26.65;;;6.80;;
37785;SDS011;23625;48.784;9.336;2023-10-09T00:53:49;24.52;;;6.43;;
37785;SDS011;23625;48.784;9.336;2023-10-09T00:56:18;28.45;;;5.35;;
37785;SDS011;23625;48.784;9.336;2023-10-09T00:59:00;20.17;;;5.60;;
37785;SDS011;23625;48.784;9.336;2023-10-09T01:01:33;37.65;;;6.97;;
37785;SDS011;23625;48.784;9.336;2023-10-09T01:04:05;28.35;;;6.28;;
37785;SDS011;23625;48.784;9.336;2023-10-09T01:06:50;29.67;;;6.70;;
37785;SDS011;23625;48.784;9.336;2023-10-09T01:09:33;26.42;;;5.30;;
37785;SDS011;23625;48.784;9.336;2023-10-09T01:12:08;21.03;;;5.83;;
37785;SDS011;23625;48.784;9.336;2023-10-09T01:14:42;34.33;;;7.40;;
37785;SDS011;23625;48.784;9.336;2023-10-09T01:17:08;25.27;;;6.05;;
37785;SDS011;23625;48.784;9.336;2023-10-09T01:19:34;25.30;;;5.75;;
37785;SDS011;23625;48.784;9.336;2023-10-09T01:22:00;27.17;;;6.90;;
37785;SDS011;23625;48.784;9.336;2023-10-09T01:24:39;24.40;;;6.30;;
37785;SDS011;23625;48.784;9.336;2023-10-09T01:27:07;29.77;;;6.57;;
37785;SDS011;23625;48.784;9.336;2023-10-09T01:29:39;24.35;;;5.68;;
37785;SDS011;23625;48.784;9.336;2023-10-09T01:32:07;26.92;;;6.28;;
37785;SDS011;23625;48.784;9.336;2023-10-09T01:34:41;26.35;;;6.15;;
37785;SDS011;23625;48.784;9.336;2023-10-09T01:37:07;31.13;;;5.50;;
37785;SDS011;23625;48.784;9.336;2023-10-09T01:39:40;26.42;;;6.32;;
37785;SDS011;23625;48.784;9.336;2023-10-09T01:42:07;22.02;;;6.32;;
37785;SDS011;23625;48.784;9.336;2023-10-09T01:44:34;24.10;;;5.40;;
37785;SDS011;23625;48.784;9.336;2023-10-09T01:47:08;27.98;;;5.45;;
37785;SDS011;23625;48.784;9.336;2023-10-09T01:49:39;21.70;;;5.47;;
37785;SDS011;23625;48.784;9.336;2023-10-09T01:52:08;27.27;;;5.93;;
37785;SDS011;23625;48.784;9.336;2023-10-09T01:54:41;32.03;;;4.93;;
37785;SDS011;23625;48.784;9.336;2023-10-09T01:57:17;32.38;;;6.32;;
37785;SDS011;23625;48.784;9.336;2023-10-09T01:59:55;20.83;;;6.22;;
37785;SDS011;23625;48.784;9.336;2023-10-09T02:02:24;24.98;;;6.07;;
37785;SDS011;23625;48.784;9.336;2023-10-09T02:04:50;27.00;;;6.22;;
37785;SDS011;23625;48.784;9.336;2023-10-09T02:07:18;25.58;;;6.93;;
37785;SDS011;23625;48.784;9.336;2023-10-09T02:09:52;28.10;;;6.28;;
37785;SDS011;23625;48.784;9.336;2023-10-09T02:12:19;25.13;;;6.82;;
37785;SDS011;23625;48.784;9.336;2023-10-09T02:14:46;34.15;;;6.20;;
37785;SDS011;23625;48.784;9.336;2023-10-09T02:17:12;28.10;;;8.57;;
37785;SDS011;23625;48.784;9.336;2023-10-09T02:19:45;30.73;;;6.72;;
37785;SDS011;23625;48.784;9.336;2023-10-09T02:22:14;24.23;;;7.25;;
37785;SDS011;23625;48.784;9.336;2023-10-09T02:24:41;27.45;;;6.63;;
37785;SDS011;23625;48.784;9.336;2023-10-09T02:27:14;25.73;;;6.00;;
37785;SDS011;23625;48.784;9.336;2023-10-09T02:32:34;19.70;;;5.95;;
37785;SDS011;23625;48.784;9.336;2023-10-09T02:35:03;20.98;;;5.72;;
37785;SDS011;23625;48.784;9.336;2023-10-09T02:37:35;25.80;;;7.60;;
37785;SDS011;23625;48.784;9.336;2023-10-09T02:40:03;26.08;;;5.47;;
37785;SDS011;23625;48.784;9.336;2023-10-09T02:42:33;27.00;;;6.05;;
37785;SDS011;23625;48.784;9.336;2023-10-09T02:44:59;36.63;;;6.32;;
37785;SDS011;23625;48.784;9.336;2023-10-09T02:47:25;23.80;;;6.22;;
37785;SDS011;23625;48.784;9.336;2023-10-09T02:49:56;21.25;;;5.70;;
37785;SDS011;23625;48.784;9.336;2023-10-09T02:52:31;27.75;;;6.63;;
37785;SDS011;23625;48.784;9.336;2023-10-09T02:55:05;27.25;;;6.25;;
37785;SDS011;23625;48.784;9.336;2023-10-09T02:57:37;30.77;;;7.30;;
37785;SDS011;23625;48.784;9.336;2023-10-09T03:00:06;22.33;;;6.82;;
37785;SDS011;23625;48.784;9.336;2023-10-09T03:02:44;21.08;;;5.82;;
37785;SDS011;23625;48.784;9.336;2023-10-09T03:05:13;45.28;;;7.20;;
37785;SDS011;23625;48.784;9.336;2023-10-09T03:07:40;36.42;;;6.07;;
37785;SDS011;23625;48.784;9.336;2023-10-09T03:10:06;36.08;;;5.85;;
37785;SDS011;23625;48.784;9.336;2023-10-09T03:12:34;36.78;;;5.93;;
37785;SDS011;23625;48.784;9.336;2023-10-09T03:15:01;28.35;;;6.18;;
37785;SDS011;23625;48.784;9.336;2023-10-09T03:17:30;38.60;;;6.47;;
37785;SDS011;23625;48.784;9.336;2023-10-09T03:19:59;34.55;;;6.20;;
37785;SDS011;23625;48.784;9.336;2023-10-09T03:22:28;23.65;;;5.25;;
37785;SDS011;23625;48.784;9.336;2023-10-09T03:24:55;27.48;;;5.10;;
37785;SDS011;23625;48.784;9.336;2023-10-09T03:27:21;42.92;;;6.75;;
37785;SDS011;23625;48.784;9.336;2023-10-09T03:29:47;37.63;;;5.68;;
37785;SDS011;23625;48.784;9.336;2023-10-09T03:32:18;26.48;;;5.93;;
37785;SDS011;23625;48.784;9.336;2023-10-09T03:34:44;30.42;;;5.57;;
37785;SDS011;23625;48.784;9.336;2023-10-09T03:37:10;26.48;;;4.82;;
37785;SDS011;23625;48.784;9.336;2023-10-09T03:39:47;28.27;;;4.97;;
37785;SDS011;23625;48.784;9.336;2023-10-09T03:42:13;33.80;;;6.22;;
37785;SDS011;23625;48.784;9.336;2023-10-09T03:44:48;24.75;;;6.00;;
37785;SDS011;23625;48.784;9.336;2023-10-09T03:47:22;28.42;;;6.60;;
37785;SDS011;23625;48.784;9.336;2023-10-09T03:49:51;22.90;;;5.22;;
37785;SDS011;23625;48.784;9.336;2023-10-09T03:52:18;25.67;;;6.40;;
37785;SDS011;23625;48.784;9.336;2023-10-09T03:54:44;24.90;;;6.00;;
37785;SDS011;23625;48.784;9.336;2023-10-09T03:57:12;22.33;;;5.68;;
37785;SDS011;23625;48.784;9.336;2023-10-09T03:59:45;23.95;;;5.65;;
37785;SDS011;23625;48.784;9.336;2023-10-09T04:02:12;28.15;;;6.38;;
37785;SDS011;23625;48.784;9.336;2023-10-09T04:04:38;34.22;;;5.63;;
37785;SDS011;23625;48.784;9.336;2023-10-09T04:07:03;29.17;;;6.28;;
37785;SDS011;23625;48.784;9.336;2023-10-09T04:09:31;31.00;;;5.88;;
37785;SDS011;23625;48.784;9.336;2023-10-09T04:12:04;24.13;;;5.35;;
37785;SDS011;23625;48.784;9.336;2023-10-09T04:14:40;24.20;;;8.50;;
37785;SDS011;23625;48.784;9.336;2023-10-09T04:17:19;24.15;;;6.07;;
37785;SDS011;23625;48.784;9.336;2023-10-09T04:19:54;36.58;;;7.03;;
37785;SDS011;23625;48.784;9.336;2023-10-09T04:22:39;25.45;;;5.97;;
37785;SDS011;23625;48.784;9.336;2023-10-09T04:25:26;18.85;;;6.88;;
37785;SDS011;23625;48.784;9.336;2023-10-09T04:27:54;22.50;;;6.28;;
37785;SDS011;23625;48.784;9.336;2023-10-09T04:30:43;30.05;;;6.60;;
37785;SDS011;23625;48.784;9.336;2023-10-09T04:33:14;26.30;;;6.38;;
37785;SDS011;23625;48.784;9.336;2023-10-09T04:38:45;17.33;;;5.68;;
37785;SDS011;23625;48.784;9.336;2023-10-09T04:41:23;24.92;;;5.70;;
37785;SDS011;23625;48.784;9.336;2023-10-09T04:43:53;21.00;;;5.78;;
37785;SDS011;23625;48.784;9.336;2023-10-09T04:46:30;26.02;;;7.03;;
37785;SDS011;23625;48.784;9.336;2023-10-09T04:49:09;20.95;;;6.30;;
37785;SDS011;23625;48.784;9.336;2023-10-09T04:51:55;22.13;;;6.32;;
37785;SDS011;23625;48.784;9.336;2023-10-09T04:54:44;20.80;;;6.60;;
37785;SDS011;23625;48.784;9.336;2023-10-09T04:57:44;18.75;;;5.80;;
37785;SDS011;23625;48.784;9.336;2023-10-09T05:00:12;19.13;;;5.85;;
37785;SDS011;23625;48.784;9.336;2023-10-09T05:02:48;18.25;;;6.20;;
37785;SDS011;23625;48.784;9.336;2023-10-09T05:05:23;28.10;;;6.50;;
37785;SDS011;23625;48.784;9.336;2023-10-09T05:08:05;18.95;;;6.03;;
37785;SDS011;23625;48.784;9.336;2023-10-09T05:10:47;23.40;;;7.93;;
37785;SDS011;23625;48.784;9.336;2023-10-09T05:18:51;18.27;;;7.75;;
37785;SDS011;23625;48.784;9.336;2023-10-09T05:21:43;18.98;;;6.63;;
37785;SDS011;23625;48.784;9.336;2023-10-09T05:24:12;16.60;;;6.32;;
37785;SDS011;23625;48.784;9.336;2023-10-09T05:26:38;21.58;;;6.00;;
37785;SDS011;23625;48.784;9.336;2023-10-09T05:32:01;18.33;;;6.65;;
37785;SDS011;23625;48.784;9.336;2023-10-09T05:34:50;22.05;;;5.93;;
37785;SDS011;23625;48.784;9.336;2023-10-09T05:37:34;36.25;;;6.45;;
37785;SDS011;23625;48.784;9.336;2023-10-09T05:40:00;23.17;;;5.07;;
37785;SDS011;23625;48.784;9.336;2023-10-09T05:42:44;22.08;;;5.68;;
37785;SDS011;23625;48.784;9.336;2023-10-09T05:45:22;27.20;;;8.65;;
37785;SDS011;23625;48.784;9.336;2023-10-09T05:48:06;25.67;;;7.28;;
37785;SDS011;23625;48.784;9.336;2023-10-09T05:50:52;19.13;;;6.23;;
37785;SDS011;23625;48.784;9.336;2023-10-09T05:53:29;26.70;;;6.85;;
37785;SDS011;23625;48.784;9.336;2023-10-09T05:56:10;23.10;;;6.47;;
37785;SDS011;23625;48.784;9.336;2023-10-09T05:58:55;23.40;;;5.53;;
37785;SDS011;23625;48.784;9.336;2023-10-09T06:01:39;27.33;;;6.43;;
37785;SDS011;23625;48.784;9.336;2023-10-09T06:04:23;23.95;;;5.65;;
37785;SDS011;23625;48.784;9.336;2023-10-09T06:07:08;15.50;;;5.80;;
37785;SDS011;23625;48.784;9.336;2023-10-09T06:09:37;31.98;;;6.22;;
37785;SDS011;23625;48.784;9.336;2023-10-09T06:12:14;20.23;;;6.28;;
37785;SDS011;23625;48.784;9.336;2023-10-09T06:14:58;24.98;;;6.63;;
37785;SDS011;23625;48.784;9.336;2023-10-09T06:17:44;25.77;;;6.57;;
37785;SDS011;23625;48.784;9.336;2023-10-09T06:20:15;22.92;;;7.18;;
37785;SDS011;23625;48.784;9.336;2023-10-09T06:23:01;22.48;;;6.40;;
37785;SDS011;23625;48.784;9.336;2023-10-09T06:25:41;20.45;;;7.03;;
37785;SDS011;23625;48.784;9.336;2023-10-09T06:28:16;21.30;;;6.65;;
37785;SDS011;23625;48.784;9.336;2023-10-09T06:30:44;23.27;;;6.63;;
37785;SDS011;23625;48.784;9.336;2023-10-09T06:33:12;23.85;;;6.60;;
37785;SDS011;23625;48.784;9.336;2023-10-09T06:35:44;22.92;;;8.88;;
37785;SDS011;23625;48.784;9.336;2023-10-09T06:38:18;21.65;;;6.78;;
37785;SDS011;23625;48.784;9.336;2023-10-09T06:40:48;24.20;;;8.38;;
37785;SDS011;23625;48.784;9.336;2023-10-09T06:43:27;20.75;;;6.82;;
37785;SDS011;23625;48.784;9.336;2023-10-09T06:45:56;22.98;;;7.70;;
37785;SDS011;23625;48.784;9.336;2023-10-09T06:48:40;25.75;;;6.75;;
37785;SDS011;23625;48.784;9.336;2023-10-09T06:51:10;23.75;;;7.05;;
37785;SDS011;23625;48.784;9.336;2023-10-09T06:56:20;26.02;;;7.03;;
37785;SDS011;23625;48.784;9.336;2023-10-09T06:58:52;30.75;;;8.02;;
37785;SDS011;23625;48.784;9.336;2023-10-09T07:01:22;31.35;;;6.90;;
37785;SDS011;23625;48.784;9.336;2023-10-09T07:04:11;28.83;;;6.80;;
37785;SDS011;23625;48.784;9.336;2023-10-09T07:06:55;34.88;;;6.00;;
37785;SDS011;23625;48.784;9.336;2023-10-09T07:09:21;41.65;;;6.13;;
37785;SDS011;23625;48.784;9.336;2023-10-09T07:11:51;49.40;;;6.90;;
37785;SDS011;23625;48.784;9.336;2023-10-09T07:14:21;59.83;;;6.68;;
37785;SDS011;23625;48.784;9.336;2023-10-09T07:16:57;59.17;;;8.55;;
37785;SDS011;23625;48.784;9.336;2023-10-09T07:19:31;51.00;;;10.32;;
37785;SDS011;23625;48.784;9.336;2023-10-09T07:22:00;55.50;;;7.03;;
37785;SDS011;23625;48.784;9.336;2023-10-09T07:24:29;49.05;;;7.15;;
37785;SDS011;23625;48.784;9.336;2023-10-09T07:27:16;56.53;;;6.68;;
37785;SDS011;23625;48.784;9.336;2023-10-09T07:29:42;65.65;;;7.55;;
37785;SDS011;23625;48.784;9.336;2023-10-09T07:32:14;75.50;;;6.15;;
37785;SDS011;23625;48.784;9.336;2023-10-09T07:34:52;41.70;;;6.50;;
37785;SDS011;23625;48.784;9.336;2023-10-09T07:37:19;62.80;;;5.90;;
37785;SDS011;23625;48.784;9.336;2023-10-09T07:39:48;39.00;;;6.03;;
37785;SDS011;23625;48.784;9.336;2023-10-09T07:42:23;44.35;;;6.72;;
37785;SDS011;23625;48.784;9.336;2023-10-09T07:45:19;36.90;;;5.17;;
37785;SDS011;23625;48.784;9.336;2023-10-09T07:47:47;33.58;;;6.45;;
37785;SDS011;23625;48.784;9.336;2023-10-09T07:50:40;41.47;;;8.68;;
37785;SDS011;23625;48.784;9.336;2023-10-09T07:53:14;28.50;;;5.95;;
37785;SDS011;23625;48.784;9.336;2023-10-09T07:55:43;32.20;;;8.60;;
37785;SDS011;23625;48.784;9.336;2023-10-09T07:58:30;42.47;;;10.18;;
37785;SDS011;23625;48.784;9.336;2023-10-09T08:00:58;24.23;;;6.55;;
37785;SDS011;23625;48.784;9.336;2023-10-09T08:03:35;28.10;;;6.00;;
37785;SDS011;23625;48.784;9.336;2023-10-09T08:06:01;40.78;;;7.25;;
37785;SDS011;23625;48.784;9.336;2023-10-09T08:08:46;44.78;;;5.55;;
37785;SDS011;23625;48.784;9.336;2023-10-09T08:11:30;32.45;;;4.55;;
37785;SDS011;23625;48.784;9.336;2023-10-09T08:14:19;40.55;;;5.35;;
37785;SDS011;23625;48.784;9.336;2023-10-09T08:17:05;37.10;;;6.00;;
37785;SDS011;23625;48.784;9.336;2023-10-09T08:19:52;41.03;;;5.45;;
37785;SDS011;23625;48.784;9.336;2023-10-09T08:22:36;21.42;;;4.30;;
37785;SDS011;23625;48.784;9.336;2023-10-09T08:25:17;34.22;;;4.65;;
37785;SDS011;23625;48.784;9.336;2023-10-09T08:28:00;30.88;;;4.80;;
37785;SDS011;23625;48.784;9.336;2023-10-09T08:30:39;39.88;;;5.28;;
37785;SDS011;23625;48.784;9.336;2023-10-09T08:33:31;27.60;;;5.57;;
37785;SDS011;23625;48.784;9.336;2023-10-09T08:35:59;25.90;;;5.80;;
37785;SDS011;23625;48.784;9.336;2023-10-09T08:38:29;34.40;;;5.45;;
37785;SDS011;23625;48.784;9.336;2023-10-09T08:41:11;36.47;;;6.60;;
37785;SDS011;23625;48.784;9.336;2023-10-09T08:43:51;34.97;;;5.40;;
37785;SDS011;23625;48.784;9.336;2023-10-09T08:46:22;24.08;;;5.20;;
37785;SDS011;23625;48.784;9.336;2023-10-09T08:48:51;25.98;;;5.65;;
37785;SDS011;23625;48.784;9.336;2023-10-09T08:51:24;32.88;;;5.57;;
37785;SDS011;23625;48.784;9.336;2023-10-09T08:53:52;38.47;;;7.53;;
37785;SDS011;23625;48.784;9.336;2023-10-09T08:56:18;27.35;;;6.35;;
37785;SDS011;23625;48.784;9.336;2023-10-09T08:58:47;24.30;;;4.90;;
37785;SDS011;23625;48.784;9.336;2023-10-09T09:01:18;30.65;;;5.63;;
37785;SDS011;23625;48.784;9.336;2023-10-09T09:03:49;25.58;;;5.93;;
37785;SDS011;23625;48.784;9.336;2023-10-09T09:06:15;32.10;;;5.35;;
37785;SDS011;23625;48.784;9.336;2023-10-09T09:08:44;38.03;;;5.43;;
37785;SDS011;23625;48.784;9.336;2023-10-09T09:13:42;33.13;;;5.93;;
37785;SDS011;23625;48.784;9.336;2023-10-09T09:16:24;37.80;;;5.78;;
37785;SDS011;23625;48.784;9.336;2023-10-09T09:18:57;37.50;;;5.95;;
37785;SDS011;23625;48.784;9.336;2023-10-09T09:21:33;35.55;;;6.70;;
37785;SDS011;23625;48.784;9.336;2023-10-09T09:24:22;35.00;;;5.90;;
37785;SDS011;23625;48.784;9.336;2023-10-09T09:26:48;26.08;;;4.97;;
37785;SDS011;23625;48.784;9.336;2023-10-09T09:29:45;28.83;;;6.88;;
37785;SDS011;23625;48.784;9.336;2023-10-09T09:32:29;48.22;;;11.35;;
37785;SDS011;23625;48.784;9.336;2023-10-09T09:35:03;27.77;;;5.95;;
37785;SDS011;23625;48.784;9.336;2023-10-09T09:37:30;31.00;;;5.97;;
37785;SDS011;23625;48.784;9.336;2023-10-09T09:40:08;20.67;;;5.40;;
37785;SDS011;23625;48.784;9.336;2023-10-09T09:42:54;25.42;;;5.18;;
37785;SDS011;23625;48.784;9.336;2023-10-09T09:45:37;30.85;;;5.72;;
37785;SDS011;23625;48.784;9.336;2023-10-09T09:48:04;37.03;;;5.30;;
37785;SDS011;23625;48.784;9.336;2023-10-09T09:50:35;39.05;;;5.30;;
37785;SDS011;23625;48.784;9.336;2023-10-09T09:53:13;33.97;;;5.95;;
37785;SDS011;23625;48.784;9.336;2023-10-09T09:55:49;55.60;;;8.10;;
37785;SDS011;23625;48.784;9.336;2023-10-09T09:58:22;42.92;;;5.93;;
37785;SDS011;23625;48.784;9.336;2023-10-09T10:00:59;25.98;;;4.63;;
37785;SDS011;23625;48.784;9.336;2023-10-09T10:03:36;28.98;;;4.97;;
37785;SDS011;23625;48.784;9.336;2023-10-09T10:06:08;34.22;;;5.38;;
37785;SDS011;23625;48.784;9.336;2023-10-09T10:08:37;30.55;;;5.25;;
37785;SDS011;23625;48.784;9.336;2023-10-09T10:11:04;24.73;;;4.25;;
37785;SDS011;23625;48.784;9.336;2023-10-09T10:16:09;22.83;;;4.72;;
37785;SDS011;23625;48.784;9.336;2023-10-09T10:21:25;38.17;;;5.03;;
37785;SDS011;23625;48.784;9.336;2023-10-09T10:24:40;29.00;;;5.82;;
37785;SDS011;23625;48.784;9.336;2023-10-09T10:27:26;27.27;;;6.22;;
37785;SDS011;23625;48.784;9.336;2023-10-09T10:35:17;28.55;;;5.22;;
37785;SDS011;23625;48.784;9.336;2023-10-09T10:37:45;27.23;;;5.32;;
37785;SDS011;23625;48.784;9.336;2023-10-09T10:40:38;35.17;;;5.50;;
37785;SDS011;23625;48.784;9.336;2023-10-09T10:43:06;25.13;;;5.15;;
37785;SDS011;23625;48.784;9.336;2023-10-09T10:45:38;23.92;;;4.97;;
37785;SDS011;23625;48.784;9.336;2023-10-09T10:48:10;26.95;;;5.43;;
37785;SDS011;23625;48.784;9.336;2023-10-09T10:50:48;25.45;;;4.60;;
37785;SDS011;23625;48.784;9.336;2023-10-09T10:53:22;30.15;;;5.25;;
37785;SDS011;23625;48.784;9.336;2023-10-09T10:55:59;31.35;;;4.25;;
37785;SDS011;23625;48.784;9.336;2023-10-09T10:58:38;26.20;;;5.38;;
37785;SDS011;23625;48.784;9.336;2023-10-09T11:01:18;29.63;;;4.95;;
37785;SDS011;23625;48.784;9.336;2023-10-09T11:03:49;26.40;;;4.55;;
37785;SDS011;23625;48.784;9.336;2023-10-09T11:06:28;25.33;;;4.30;;
37785;SDS011;23625;48.784;9.336;2023-10-09T11:09:01;22.92;;;4.22;;
37785;SDS011;23625;48.784;9.336;2023-10-09T11:11:35;25.25;;;4.72;;
37785;SDS011;23625;48.784;9.336;2023-10-09T11:14:12;28.55;;;5.07;;
37785;SDS011;23625;48.784;9.336;2023-10-09T11:16:48;27.60;;;5.45;;
37785;SDS011;23625;48.784;9.336;2023-10-09T11:19:22;30.88;;;6.03;;
37785;SDS011;23625;48.784;9.336;2023-10-09T11:21:58;28.27;;;5.45;;
37785;SDS011;23625;48.784;9.336;2023-10-09T11:24:31;29.15;;;4.88;;
37785;SDS011;23625;48.784;9.336;2023-10-09T11:27:01;26.55;;;5.15;;
37785;SDS011;23625;48.784;9.336;2023-10-09T11:29:31;31.67;;;5.65;;
37785;SDS011;23625;48.784;9.336;2023-10-09T11:32:15;27.98;;;5.55;;
37785;SDS011;23625;48.784;9.336;2023-10-09T11:34:47;26.80;;;4.65;;
37785;SDS011;23625;48.784;9.336;2023-10-09T11:37:19;33.10;;;5.72;;
37785;SDS011;23625;48.784;9.336;2023-10-09T11:39:55;35.47;;;6.55;;
37785;SDS011;23625;48.784;9.336;2023-10-09T11:42:22;23.77;;;4.38;;
37785;SDS011;23625;48.784;9.336;2023-10-09T11:45:23;27.27;;;5.07;;
37785;SDS011;23625;48.784;9.336;2023-10-09T11:47:54;29.77;;;5.38;;
37785;SDS011;23625;48.784;9.336;2023-10-09T11:53:16;25.00;;;5.55;;
37785;SDS011;23625;48.784;9.336;2023-10-09T11:55:48;28.73;;;5.05;;
37785;SDS011;23625;48.784;9.336;2023-10-09T11:58:18;31.00;;;5.05;;
37785;SDS011;23625;48.784;9.336;2023-10-09T12:00:51;28.95;;;5.15;;
37785;SDS011;23625;48.784;9.336;2023-10-09T12:03:23;33.55;;;5.20;;
37785;SDS011;23625;48.784;9.336;2023-10-09T12:05:53;27.13;;;4.40;;
37785;SDS011;23625;48.784;9.336;2023-10-09T12:08:25;27.58;;;5.55;;
37785;SDS011;23625;48.784;9.336;2023-10-09T12:10:54;31.08;;;5.95;;
37785;SDS011;23625;48.784;9.336;2023-10-09T12:13:21;26.52;;;5.57;;
37785;SDS011;23625;48.784;9.336;2023-10-09T12:15:48;31.33;;;6.28;;
37785;SDS011;23625;48.784;9.336;2023-10-09T12:18:17;30.27;;;5.22;;
37785;SDS011;23625;48.784;9.336;2023-10-09T12:20:44;25.63;;;5.10;;
37785;SDS011;23625;48.784;9.336;2023-10-09T12:23:16;26.40;;;5.00;;
37785;SDS011;23625;48.784;9.336;2023-10-09T12:25:47;36.45;;;5.03;;
37785;SDS011;23625;48.784;9.336;2023-10-09T12:28:14;34.97;;;6.75;;
37785;SDS011;23625;48.784;9.336;2023-10-09T12:30:40;27.35;;;4.97;;
37785;SDS011;23625;48.784;9.336;2023-10-09T12:33:06;35.90;;;6.65;;
37785;SDS011;23625;48.784;9.336;2023-10-09T12:35:36;27.48;;;4.30;;
37785;SDS011;23625;48.784;9.336;2023-10-09T12:38:03;30.00;;;6.13;;
37785;SDS011;23625;48.784;9.336;2023-10-09T12:40:33;30.35;;;6.35;;
37785;SDS011;23625;48.784;9.336;2023-10-09T12:42:59;31.02;;;7.00;;
37785;SDS011;23625;48.784;9.336;2023-10-09T12:45:25;34.42;;;6.85;;
37785;SDS011;23625;48.784;9.336;2023-10-09T12:47:54;35.47;;;5.68;;
37785;SDS011;23625;48.784;9.336;2023-10-09T12:50:35;26.10;;;5.13;;
37785;SDS011;23625;48.784;9.336;2023-10-09T12:53:07;34.65;;;8.93;;
37785;SDS011;23625;48.784;9.336;2023-10-09T12:55:40;34.55;;;6.03;;
37785;SDS011;23625;48.784;9.336;2023-10-09T12:58:09;28.83;;;5.07;;
37785;SDS011;23625;48.784;9.336;2023-10-09T13:00:39;36.60;;;6.78;;
37785;SDS011;23625;48.784;9.336;2023-10-09T13:03:09;33.80;;;6.72;;
37785;SDS011;23625;48.784;9.336;2023-10-09T13:05:55;34.50;;;7.40;;
37785;SDS011;23625;48.784;9.336;2023-10-09T13:08:24;30.87;;;5.93;;
37785;SDS011;23625;48.784;9.336;2023-10-09T13:11:04;33.40;;;6.15;;
37785;SDS011;23625;48.784;9.336;2023-10-09T13:13:36;32.88;;;4.53;;
37785;SDS011;23625;48.784;9.336;2023-10-09T13:16:13;29.92;;;6.55;;
37785;SDS011;23625;48.784;9.336;2023-10-09T13:18:49;50.38;;;12.77;;
37785;SDS011;23625;48.784;9.336;2023-10-09T13:23:45;32.60;;;8.07;;
37785;SDS011;23625;48.784;9.336;2023-10-09T13:26:19;30.27;;;7.43;;
37785;SDS011;23625;48.784;9.336;2023-10-09T13:28:53;39.05;;;7.30;;
37785;SDS011;23625;48.784;9.336;2023-10-09T13:31:19;24.42;;;6.18;;
37785;SDS011;23625;48.784;9.336;2023-10-09T13:33:46;24.80;;;5.60;;
37785;SDS011;23625;48.784;9.336;2023-10-09T13:36:13;21.52;;;5.50;;
37785;SDS011;23625;48.784;9.336;2023-10-09T13:41:45;31.33;;;5.57;;
37785;SDS011;23625;48.784;9.336;2023-10-09T13:44:11;33.38;;;5.60;;
37785;SDS011;23625;48.784;9.336;2023-10-09T13:46:37;29.02;;;5.70;;
37785;SDS011;23625;48.784;9.336;2023-10-09T13:49:09;35.53;;;5.50;;
37785;SDS011;23625;48.784;9.336;2023-10-09T13:51:42;27.58;;;6.22;;
37785;SDS011;23625;48.784;9.336;2023-10-09T13:54:10;35.30;;;6.63;;
37785;SDS011;23625;48.784;9.336;2023-10-09T13:56:59;23.10;;;6.20;;
37785;SDS011;23625;48.784;9.336;2023-10-09T13:59:28;26.02;;;6.10;;
37785;SDS011;23625;48.784;9.336;2023-10-09T14:01:54;27.42;;;6.85;;
37785;SDS011;23625;48.784;9.336;2023-10-09T14:04:20;22.48;;;6.95;;
37785;SDS011;23625;48.784;9.336;2023-10-09T14:06:48;20.20;;;7.35;;
37785;SDS011;23625;48.784;9.336;2023-10-09T14:09:24;17.73;;;6.53;;
37785;SDS011;23625;48.784;9.336;2023-10-09T14:12:02;28.75;;;8.18;;
37785;SDS011;23625;48.784;9.336;2023-10-09T14:14:33;33.75;;;8.30;;
37785;SDS011;23625;48.784;9.336;2023-10-09T14:17:03;21.65;;;7.88;;
37785;SDS011;23625;48.784;9.336;2023-10-09T14:19:44;22.90;;;8.23;;
37785;SDS011;23625;48.784;9.336;2023-10-09T14:22:16;20.33;;;7.60;;
37785;SDS011;23625;48.784;9.336;2023-10-09T14:24:43;24.15;;;8.00;;
37785;SDS011;23625;48.784;9.336;2023-10-09T14:27:13;23.13;;;7.85;;
37785;SDS011;23625;48.784;9.336;2023-10-09T14:29:49;18.58;;;6.88;;
37785;SDS011;23625;48.784;9.336;2023-10-09T14:32:15;25.05;;;7.50;;
37785;SDS011;23625;48.784;9.336;2023-10-09T14:34:44;23.02;;;8.10;;
37785;SDS011;23625;48.784;9.336;2023-10-09T14:37:16;18.63;;;7.30;;
37785;SDS011;23625;48.784;9.336;2023-10-09T14:39:44;22.10;;;8.00;;
37785;SDS011;23625;48.784;9.336;2023-10-09T14:42:16;21.83;;;8.73;;
37785;SDS011;23625;48.784;9.336;2023-10-09T14:44:43;32.40;;;9.50;;
37785;SDS011;23625;48.784;9.336;2023-10-09T14:47:12;22.58;;;7.65;;
37785;SDS011;23625;48.784;9.336;2023-10-09T14:49:39;25.88;;;9.50;;
37785;SDS011;23625;48.784;9.336;2023-10-09T14:52:11;16.80;;;7.50;;
37785;SDS011;23625;48.784;9.336;2023-10-09T14:54:41;22.38;;;7.40;;
37785;SDS011;23625;48.784;9.336;2023-10-09T14:57:07;15.27;;;6.93;;
37785;SDS011;23625;48.784;9.336;2023-10-09T14:59:36;20.67;;;7.55;;
37785;SDS011;23625;48.784;9.336;2023-10-09T15:02:02;18.30;;;6.32;;
37785;SDS011;23625;48.784;9.336;2023-10-09T15:04:30;16.30;;;7.30;;
37785;SDS011;23625;48.784;9.336;2023-10-09T15:06:56;23.67;;;7.15;;
37785;SDS011;23625;48.784;9.336;2023-10-09T15:09:22;23.88;;;7.40;;
37785;SDS011;23625;48.784;9.336;2023-10-09T15:11:50;23.25;;;7.40;;
37785;SDS011;23625;48.784;9.336;2023-10-09T15:14:17;17.92;;;6.28;;
37785;SDS011;23625;48.784;9.336;2023-10-09T15:16:46;17.23;;;6.97;;
37785;SDS011;23625;48.784;9.336;2023-10-09T15:19:12;18.42;;;7.75;;
37785;SDS011;23625;48.784;9.336;2023-10-09T15:21:39;23.05;;;6.95;;
37785;SDS011;23625;48.784;9.336;2023-10-09T15:24:11;20.30;;;7.18;;
37785;SDS011;23625;48.784;9.336;2023-10-09T15:26:44;19.88;;;7.03;;
37785;SDS011;23625;48.784;9.336;2023-10-09T15:29:17;28.33;;;7.45;;
37785;SDS011;23625;48.784;9.336;2023-10-09T15:31:45;22.83;;;6.72;;
37785;SDS011;23625;48.784;9.336;2023-10-09T15:34:12;16.23;;;6.68;;
37785;SDS011;23625;48.784;9.336;2023-10-09T15:36:37;20.58;;;6.95;;
37785;SDS011;23625;48.784;9.336;2023-10-09T15:39:05;18.90;;;7.13;;
37785;SDS011;23625;48.784;9.336;2023-10-09T15:41:33;20.30;;;7.15;;
37785;SDS011;23625;48.784;9.336;2023-10-09T15:44:00;19.75;;;7.53;;
37785;SDS011;23625;48.784;9.336;2023-10-09T15:46:26;20.75;;;6.32;;